createdAt,value
2022-07-26T00:04:54.867Z,100094.19
2022-07-26T00:10:03.276Z,100076.81
2022-07-26T00:15:35.473Z,100081.06
2022-07-26T00:21:08.995Z,100074.25
2022-07-26T00:26:43.321Z,100060.03
2022-07-26T00:32:15.818Z,100055.47
2022-07-26T00:38:13.368Z,100053.38
2022-07-26T00:43:56.459Z,100049.72
2022-07-26T00:49:03.575Z,100049.59
2022-07-26T00:54:41.255Z,100032.84
2022-07-26T01:00:16.947Z,100030.72
2022-07-26T01:05:26.274Z,100033.53
2022-07-26T01:11:24.483Z,100044.66
2022-07-26T01:16:31.756Z,100035.50
2022-07-26T01:21:40.906Z,100039.13
2022-07-26T01:26:48.506Z,100044.06
2022-07-26T01:31:58.393Z,100024.84
2022-07-26T01:37:08.468Z,100038.94
2022-07-26T01:42:16.446Z,100030.47
2022-07-26T01:47:25.780Z,100029.44
2022-07-26T01:52:36.106Z,100030.13
2022-07-26T01:57:43.289Z,100026.16
2022-07-26T02:02:50.687Z,100011.84
2022-07-26T02:08:00.104Z,100003.75
2022-07-26T02:13:07.816Z,100003.97
2022-07-26T02:18:35.867Z,99997.19
2022-07-26T02:24:10.594Z,99988.84
2022-07-26T02:29:18.107Z,99996.59
2022-07-26T02:34:25.619Z,99987.22
2022-07-26T02:39:59.033Z,99980.31
2022-07-26T02:45:06.612Z,99985.44
2022-07-26T02:50:13.768Z,99971.88
2022-07-26T02:55:24.843Z,99976.91
2022-07-26T03:00:56.692Z,99988.59
2022-07-26T03:06:28.526Z,99991.09
2022-07-26T03:11:38.448Z,99985.56
2022-07-26T03:16:45.961Z,99974.41
2022-07-26T03:21:56.854Z,99961.59
2022-07-26T03:27:32.996Z,99958.25
2022-07-26T03:32:40.020Z,99950.88
2022-07-26T03:37:51.419Z,99945.59
2022-07-26T03:43:05.068Z,99938.47
2022-07-26T03:48:11.832Z,99936.00
2022-07-26T03:53:44.792Z,99950.63
2022-07-26T03:59:18.271Z,99946.06
2022-07-26T04:05:14.313Z,99956.63
2022-07-26T04:10:48.386Z,99954.28
2022-07-26T04:16:20.684Z,99944.09
2022-07-26T04:21:28.033Z,99925.09
2022-07-26T04:26:59.995Z,99912.63
2022-07-26T04:32:33.034Z,99911.22
2022-07-26T04:38:05.556Z,99905.22
2022-07-26T04:43:15.692Z,99912.72
2022-07-26T04:48:25.062Z,99905.91
2022-07-26T04:53:32.090Z,99897.44
2022-07-26T04:59:03.823Z,99895.97
2022-07-26T05:05:25.907Z,99896.19
2022-07-26T05:10:37.351Z,99892.84
2022-07-26T05:16:44.213Z,99890.75
2022-07-26T05:22:17.155Z,99885.19
2022-07-26T05:27:50.712Z,99882.88
2022-07-26T05:32:58.097Z,99874.38
2022-07-26T05:38:54.258Z,99878.59
2022-07-26T05:44:27.454Z,99882.75
2022-07-26T05:50:08.641Z,99882.69
2022-07-26T05:55:21.179Z,99876.03
2022-07-26T06:00:54.300Z,99865.59
2022-07-26T06:06:01.813Z,99860.59
2022-07-26T06:11:58.039Z,99853.16
2022-07-26T06:17:31.388Z,99869.78
2022-07-26T06:23:04.053Z,99947.97
2022-07-26T06:28:12.786Z,99934.13
2022-07-26T06:33:21.014Z,99919.06
2022-07-26T06:38:28.019Z,99909.97
2022-07-26T06:44:00.826Z,99916.25
2022-07-26T06:49:09.385Z,99912.91
2022-07-26T06:54:16.232Z,99913.78
2022-07-26T06:59:26.837Z,99902.53
2022-07-26T07:05:02.131Z,99899.66
2022-07-26T07:10:12.638Z,99905.16
2022-07-26T07:15:19.758Z,99905.22
2022-07-26T07:20:30.100Z,99899.06
2022-07-26T07:26:07.132Z,99902.94
2022-07-26T07:31:14.635Z,99898.59
2022-07-26T07:36:48.784Z,99900.28
2022-07-26T07:41:55.895Z,99900.88
2022-07-26T07:47:03.375Z,99883.03
2022-07-26T07:52:36.386Z,99886.31
2022-07-26T07:58:07.943Z,99908.50
2022-07-26T08:03:40.408Z,99919.34
2022-07-26T08:08:49.407Z,99897.50
2022-07-26T08:14:23.013Z,99909.16
2022-07-26T08:19:41.965Z,99911.34
2022-07-26T08:24:50.909Z,99914.94
2022-07-26T08:29:57.806Z,99923.34
2022-07-26T08:35:31.136Z,99939.34
2022-07-26T08:40:39.992Z,99951.53
2022-07-26T08:45:48.054Z,99958.59
2022-07-26T08:50:55.929Z,99956.13
2022-07-26T08:56:07.204Z,99959.13
2022-07-26T09:01:15.329Z,99962.09
2022-07-26T09:06:28.124Z,99963.19
2022-07-26T09:11:36.877Z,99950.94
2022-07-26T09:17:08.634Z,99963.94
2022-07-26T09:22:41.369Z,99980.72
2022-07-26T09:28:26.149Z,100004.06
2022-07-26T09:33:59.428Z,100006.53
2022-07-26T09:39:07.154Z,100017.38
2022-07-26T09:44:47.782Z,100007.34
2022-07-26T09:50:17.072Z,100008.16
2022-07-26T09:55:29.206Z,100025.25
2022-07-26T10:00:43.354Z,100032.31
2022-07-26T10:05:51.773Z,100037.47
2022-07-26T10:11:23.351Z,100033.94
2022-07-26T10:16:56.642Z,100044.22
2022-07-26T10:22:34.395Z,100044.75
2022-07-26T10:28:12.051Z,100047.19
2022-07-26T10:33:27.152Z,100055.66
2022-07-26T10:39:12.091Z,100077.34
2022-07-26T10:44:46.613Z,100071.41
2022-07-26T10:50:00.678Z,100070.03
2022-07-26T10:56:01.828Z,100073.63
2022-07-26T11:01:37.294Z,100087.75
2022-07-26T11:06:49.609Z,100100.25
2022-07-26T11:11:57.225Z,100102.19
2022-07-26T11:17:04.339Z,100106.31
2022-07-26T11:22:37.560Z,100112.56
2022-07-26T11:28:09.702Z,100109.34
2022-07-26T11:33:44.367Z,100115.06
2022-07-26T11:38:56.544Z,100124.53
2022-07-26T11:44:18.630Z,100130.78
2022-07-26T11:49:59.871Z,100134.00
2022-07-26T11:55:32.129Z,100133.63
2022-07-26T12:00:40.139Z,100140.84
2022-07-26T12:06:05.994Z,100132.41
2022-07-26T12:11:16.355Z,100125.84
2022-07-26T12:16:49.430Z,100124.72
2022-07-26T12:21:59.423Z,100134.75
2022-07-26T12:27:48.125Z,100130.63
2022-07-26T12:33:02.679Z,100097.78
2022-07-26T12:38:11.812Z,100120.25
2022-07-26T12:43:49.828Z,100119.47
2022-07-26T12:49:00.166Z,100128.75
2022-07-26T12:54:37.406Z,100144.44
2022-07-26T12:59:46.744Z,100148.22
2022-07-26T13:05:00.671Z,100143.31
2022-07-26T13:10:35.085Z,100129.44
2022-07-26T13:15:51.489Z,100114.25
2022-07-26T13:21:00.109Z,100126.97
2022-07-26T13:26:31.657Z,100143.72
2022-07-26T13:32:05.481Z,100150.53
2022-07-26T13:37:16.568Z,100154.56
2022-07-26T13:42:51.830Z,100160.25
2022-07-26T13:48:00.596Z,100172.16
2022-07-26T13:53:32.968Z,100173.78
2022-07-26T13:59:04.650Z,100179.97
2022-07-26T14:04:15.899Z,100192.94
2022-07-26T14:09:23.656Z,100200.75
2022-07-26T14:15:00.334Z,100209.63
2022-07-26T14:20:10.512Z,100212.81
2022-07-26T14:25:22.880Z,100200.31
2022-07-26T14:30:36.023Z,100203.44
2022-07-26T14:35:50.158Z,100199.66
2022-07-26T14:41:21.435Z,100194.97
2022-07-26T14:46:52.640Z,100209.00
2022-07-26T14:52:25.423Z,100218.97
2022-07-26T14:57:57.222Z,100212.97
2022-07-26T15:03:07.188Z,100214.63
2022-07-26T15:08:15.916Z,100231.69
2022-07-26T15:13:24.664Z,100227.09
2022-07-26T15:18:31.196Z,100218.88
2022-07-26T15:23:42.491Z,100220.44
2022-07-26T15:29:14.735Z,100223.97
2022-07-26T15:34:46.837Z,100226.34
2022-07-26T15:40:21.487Z,100224.13
2022-07-26T15:45:55.500Z,100234.72
2022-07-26T15:51:03.572Z,100237.69
2022-07-26T15:56:14.001Z,100249.09
2022-07-26T16:01:21.083Z,100248.28
2022-07-26T16:06:52.760Z,100241.47
2022-07-26T16:12:26.068Z,100253.09
2022-07-26T16:18:01.732Z,100249.50
2022-07-26T16:23:36.008Z,100246.78
2022-07-26T16:28:44.240Z,100248.91
2022-07-26T16:33:51.307Z,100261.34
2022-07-26T16:39:00.435Z,100258.03
2022-07-26T16:44:33.365Z,100262.88
2022-07-26T16:49:46.685Z,100260.66
2022-07-26T16:54:53.520Z,100268.22
2022-07-26T17:00:04.896Z,100260.31
2022-07-26T17:05:36.874Z,100266.56
2022-07-26T17:11:09.096Z,100263.03
2022-07-26T17:16:24.432Z,100278.69
2022-07-26T17:21:32.353Z,100272.72
2022-07-26T17:27:07.246Z,100270.25
2022-07-26T17:33:04.977Z,100271.31
2022-07-26T17:38:16.588Z,100264.25
2022-07-26T17:43:49.304Z,100252.78
2022-07-26T17:48:57.599Z,100256.31
2022-07-26T17:54:08.307Z,100256.22
2022-07-26T17:59:39.867Z,100247.16
2022-07-26T18:05:13.493Z,100256.69
2022-07-26T18:10:50.511Z,100248.56
2022-07-26T18:16:02.874Z,100249.06
2022-07-26T18:21:43.308Z,100253.06
2022-07-26T18:27:15.168Z,100251.44
2022-07-26T18:32:46.851Z,100252.50
2022-07-26T18:37:56.007Z,100256.50
2022-07-26T18:43:03.316Z,100259.69
2022-07-26T18:48:10.707Z,100260.97
2022-07-26T18:53:47.301Z,100268.53
2022-07-26T18:59:19.196Z,100266.53
2022-07-26T19:04:50.910Z,100268.81
2022-07-26T19:09:59.830Z,100265.75
2022-07-26T19:15:09.172Z,100266.00
2022-07-26T19:20:16.666Z,100266.47
2022-07-26T19:25:29.916Z,100262.41
2022-07-26T19:30:38.856Z,100260.66
2022-07-26T19:36:11.278Z,100254.44
2022-07-26T19:41:24.373Z,100259.00
2022-07-26T19:46:31.117Z,100250.31
2022-07-26T19:51:38.460Z,100252.34
2022-07-26T19:57:12.288Z,100249.53
2022-07-26T20:02:19.817Z,100250.25
2022-07-26T20:07:54.234Z,100245.31
2022-07-26T20:13:02.994Z,100242.28
2022-07-26T20:18:10.503Z,100253.69
2022-07-26T20:23:21.150Z,100245.72
2022-07-26T20:28:29.825Z,100250.88
2022-07-26T20:33:37.624Z,100249.66
2022-07-26T20:39:09.834Z,100255.81
2022-07-26T20:44:20.445Z,100251.94
2022-07-26T20:49:30.425Z,100257.66
2022-07-26T20:54:37.676Z,100265.19
2022-07-26T21:00:12.682Z,100260.72
2022-07-26T21:05:20.128Z,100258.63
2022-07-26T21:10:51.388Z,100267.63
2022-07-26T21:16:00.189Z,100274.59
2022-07-26T21:21:08.222Z,100274.22
2022-07-26T21:26:40.542Z,100277.97
2022-07-26T21:32:13.884Z,100275.38
2022-07-26T21:38:09.990Z,100281.13
2022-07-26T21:43:17.271Z,100285.81
2022-07-26T21:48:29.938Z,100298.72
2022-07-26T21:54:02.753Z,100302.81
2022-07-26T21:59:34.635Z,100292.94
2022-07-26T22:04:45.052Z,100292.84
2022-07-26T22:09:55.766Z,100291.19
2022-07-26T22:15:02.668Z,100294.13
2022-07-26T22:20:13.844Z,100289.66
2022-07-26T22:25:21.138Z,100297.28
2022-07-26T22:30:52.787Z,100308.25
2022-07-26T22:36:27.251Z,100301.13
2022-07-26T22:41:46.166Z,100304.84
2022-07-26T22:47:01.117Z,100320.25
2022-07-26T22:52:34.223Z,100319.66
2022-07-26T22:58:10.178Z,100322.94
2022-07-26T23:03:22.450Z,100325.31
2022-07-26T23:08:59.412Z,100323.44
2022-07-26T23:14:31.705Z,100336.94
2022-07-26T23:19:38.611Z,100332.38
2022-07-26T23:25:12.282Z,100346.28
2022-07-26T23:30:49.701Z,100347.47
2022-07-26T23:36:21.417Z,100347.84
2022-07-26T23:41:36.288Z,100349.84
2022-07-26T23:46:43.350Z,100350.22
2022-07-26T23:51:55.693Z,100361.50
2022-07-26T23:57:29.597Z,100363.50
